createdAt,value
2022-12-11T00:00:29.590Z,100220.44
2022-12-11T00:02:51.994Z,100217.72
2022-12-11T00:05:14.417Z,100227.00
2022-12-11T00:07:36.715Z,100227.00
2022-12-11T00:09:59.049Z,100218.53
2022-12-11T00:12:21.379Z,100215.00
2022-12-11T00:14:43.714Z,100205.75
2022-12-11T00:17:06.215Z,100211.44
2022-12-11T00:19:28.642Z,100212.78
2022-12-11T00:21:50.979Z,100207.91
2022-12-11T00:24:13.322Z,100212.22
2022-12-11T00:26:35.671Z,100209.16
2022-12-11T00:28:58.043Z,100219.25
2022-12-11T00:31:20.676Z,100211.03
2022-12-11T00:33:44.293Z,100205.13
2022-12-11T00:36:24.449Z,100198.59
2022-12-11T00:38:46.970Z,100201.88
2022-12-11T00:41:09.409Z,100199.41
2022-12-11T00:43:31.770Z,100193.44
2022-12-11T00:45:54.129Z,100200.22
2022-12-11T00:48:16.536Z,100206.19
2022-12-11T00:50:39.038Z,100199.94
2022-12-11T00:53:01.939Z,100201.81
2022-12-11T00:55:25.474Z,100206.19
2022-12-11T00:57:47.795Z,100207.31
2022-12-11T01:00:11.521Z,100209.50
2022-12-11T01:02:34.434Z,100207.84
2022-12-11T01:04:56.883Z,100204.31
2022-12-11T01:07:19.163Z,100199.41
2022-12-11T01:10:00.040Z,100191.53
2022-12-11T01:12:22.353Z,100190.13
2022-12-11T01:14:44.685Z,100189.88
2022-12-11T01:17:07.025Z,100191.00
2022-12-11T01:19:29.351Z,100180.94
2022-12-11T01:21:51.647Z,100190.72
2022-12-11T01:24:13.971Z,100193.72
2022-12-11T01:26:36.296Z,100187.75
2022-12-11T01:28:58.736Z,100192.84
2022-12-11T01:31:22.339Z,100184.97
2022-12-11T01:33:44.728Z,100177.13
2022-12-11T01:36:15.151Z,100177.94
2022-12-11T01:38:37.545Z,100174.13
2022-12-11T01:40:59.856Z,100178.50
2022-12-11T01:43:22.230Z,100171.16
2022-12-11T01:45:47.787Z,100174.44
2022-12-11T01:48:42.075Z,100175.53
2022-12-11T01:51:05.556Z,100174.72
2022-12-11T01:53:35.510Z,100175.25
2022-12-11T01:55:58.218Z,100187.72
2022-12-11T01:58:21.386Z,100189.38
2022-12-11T02:00:43.611Z,100198.00
2022-12-11T02:03:05.942Z,100189.59
2022-12-11T02:05:28.261Z,100192.63
2022-12-11T02:07:54.454Z,100187.16
2022-12-11T02:10:16.854Z,100193.44
2022-12-11T02:12:51.376Z,100196.44
2022-12-11T02:15:19.449Z,100193.72
2022-12-11T02:18:02.668Z,100192.31
2022-12-11T02:20:33.636Z,100192.84
2022-12-11T02:23:22.802Z,100199.09
2022-12-11T02:26:12.564Z,100192.31
2022-12-11T02:28:46.334Z,100190.94
2022-12-11T02:31:25.594Z,100192.84
2022-12-11T02:34:20.490Z,100183.84
2022-12-11T02:36:46.650Z,100188.69
2022-12-11T02:39:12.496Z,100171.84
2022-12-11T02:41:34.893Z,100180.25
2022-12-11T02:43:57.549Z,100174.81
2022-12-11T02:46:20.394Z,100165.59
2022-12-11T02:48:46.242Z,100164.22
2022-12-11T02:51:08.737Z,100172.06
2022-12-11T02:53:34.581Z,100177.81
2022-12-11T02:56:09.533Z,100173.97
2022-12-11T02:58:43.946Z,100163.09
2022-12-11T03:04:12.765Z,100164.16
2022-12-11T03:06:43.399Z,100167.41
2022-12-11T03:09:05.876Z,100161.38
2022-12-11T03:11:28.225Z,100156.19
2022-12-11T03:13:51.773Z,100158.09
2022-12-11T03:16:40.751Z,100149.97
2022-12-11T03:19:37.450Z,100153.44
2022-12-11T03:22:10.321Z,100155.63
2022-12-11T03:24:50.763Z,100144.47
2022-12-11T03:27:26.045Z,100144.41
2022-12-11T03:30:16.692Z,100138.22
2022-12-11T03:32:46.104Z,100145.28
2022-12-11T03:35:40.525Z,100144.94
2022-12-11T03:38:52.748Z,100140.84
2022-12-11T03:41:15.575Z,100139.47
2022-12-11T03:43:37.920Z,100132.41
2022-12-11T03:46:00.322Z,100133.19
2022-12-11T03:48:22.684Z,100126.69
2022-12-11T03:50:45.028Z,100128.00
2022-12-11T03:53:07.513Z,100128.59
2022-12-11T03:55:29.960Z,100126.69
2022-12-11T03:57:52.305Z,100141.28
2022-12-11T04:00:18.034Z,100129.56
2022-12-11T04:02:41.510Z,100118.69
2022-12-11T04:05:04.013Z,100126.22
2022-12-11T04:07:26.329Z,100131.56
2022-12-11T04:09:48.657Z,100133.13
2022-12-11T04:12:10.957Z,100140.75
2022-12-11T04:14:52.026Z,100139.69
2022-12-11T04:17:34.289Z,100147.81
2022-12-11T04:20:15.275Z,100154.38
2022-12-11T04:22:56.198Z,100148.38
2022-12-11T04:25:18.616Z,100142.66
2022-12-11T04:27:50.034Z,100134.53
2022-12-11T04:30:16.811Z,100125.31
2022-12-11T04:32:39.112Z,100126.91
2022-12-11T04:35:01.476Z,100123.41
2022-12-11T04:37:23.818Z,100123.19
2022-12-11T04:39:46.100Z,100117.97
2022-12-11T04:42:08.438Z,100126.34
2022-12-11T04:44:30.756Z,100132.84
2022-12-11T04:46:53.134Z,100124.72
2022-12-11T04:49:15.565Z,100134.75
2022-12-11T04:51:37.874Z,100132.28
2022-12-11T04:54:00.209Z,100130.34
2022-12-11T04:56:22.610Z,100132.47
2022-12-11T04:58:45.081Z,100141.44
2022-12-11T05:01:19.591Z,100132.75
2022-12-11T05:03:42.053Z,100134.56
2022-12-11T05:06:04.579Z,100132.66
2022-12-11T05:08:26.907Z,100133.78
2022-12-11T05:11:00.174Z,100123.25
2022-12-11T05:13:22.488Z,100128.09
2022-12-11T05:15:44.859Z,100126.19
2022-12-11T05:18:07.217Z,100126.97
2022-12-11T05:20:29.594Z,100119.91
2022-12-11T05:22:51.896Z,100122.13
2022-12-11T05:25:14.300Z,100113.41
2022-12-11T05:27:38.181Z,100106.38
2022-12-11T05:30:00.514Z,100112.84
2022-12-11T05:32:22.910Z,100109.00
2022-12-11T05:34:45.248Z,100094.59
2022-12-11T05:37:07.614Z,100106.81
2022-12-11T05:39:29.972Z,100099.50
2022-12-11T05:41:52.328Z,100101.16
2022-12-11T05:44:14.692Z,100095.97
2022-12-11T05:46:37.013Z,100091.38
2022-12-11T05:49:01.053Z,100093.28
2022-12-11T05:51:23.668Z,100085.72
2022-12-11T05:53:47.628Z,100084.63
2022-12-11T05:56:30.539Z,100091.13
2022-12-11T05:58:53.224Z,100088.97
2022-12-11T06:01:30.229Z,100088.63
2022-12-11T06:03:53.878Z,100084.84
2022-12-11T06:06:16.264Z,100081.63
2022-12-11T06:08:38.864Z,100082.50
2022-12-11T06:11:01.273Z,100077.31
2022-12-11T06:13:23.656Z,100071.06
2022-12-11T06:15:45.968Z,100074.09
2022-12-11T06:18:08.783Z,100086.28
2022-12-11T06:20:34.855Z,100084.91
2022-12-11T06:22:57.197Z,100086.56
2022-12-11T06:25:19.528Z,100087.94
2022-12-11T06:27:41.834Z,100083.34
2022-12-11T06:30:04.656Z,100088.25
2022-12-11T06:32:27.268Z,100088.25
2022-12-11T06:34:49.598Z,100086.88
2022-12-11T06:37:12.228Z,100085.00
2022-12-11T06:39:34.512Z,100079.31
2022-12-11T06:41:56.873Z,100081.69
2022-12-11T06:44:19.222Z,100081.47
2022-12-11T06:46:41.542Z,100098.47
2022-12-11T06:49:03.889Z,100093.06
2022-12-11T06:51:26.404Z,100100.94
2022-12-11T06:53:53.540Z,100098.75
2022-12-11T06:56:15.919Z,100104.09
2022-12-11T06:58:38.475Z,100105.94
2022-12-11T07:01:00.858Z,100103.00
2022-12-11T07:03:23.305Z,100105.13
2022-12-11T07:05:45.640Z,100106.63
2022-12-11T07:08:08.019Z,100107.81
2022-12-11T07:10:30.372Z,100113.22
2022-12-11T07:12:55.786Z,100105.03
2022-12-11T07:15:18.155Z,100106.13
2022-12-11T07:17:40.488Z,100095.59
2022-12-11T07:20:02.888Z,100096.97
2022-12-11T07:22:25.230Z,100098.03
2022-12-11T07:24:47.549Z,100093.69
2022-12-11T07:27:09.896Z,100089.66
2022-12-11T07:29:32.369Z,100087.78
2022-12-11T07:31:54.811Z,100085.72
2022-12-11T07:34:17.198Z,100081.94
2022-12-11T07:36:39.531Z,100084.44
2022-12-11T07:39:02.019Z,100089.34
2022-12-11T07:41:24.503Z,100093.47
2022-12-11T07:43:47.164Z,100090.25
2022-12-11T07:46:18.843Z,100088.94
2022-12-11T07:48:42.243Z,100092.16
2022-12-11T07:51:19.343Z,100090.84
2022-12-11T07:53:43.077Z,100095.75
2022-12-11T07:56:05.903Z,100088.66
2022-12-11T07:58:28.278Z,100079.56
2022-12-11T08:00:50.692Z,100082.63
2022-12-11T08:03:18.081Z,100090.84
2022-12-11T08:05:40.573Z,100088.66
2022-12-11T08:08:03.062Z,100089.25
2022-12-11T08:10:28.827Z,100088.13
2022-12-11T08:12:51.483Z,100088.44
2022-12-11T08:15:34.632Z,100091.38
2022-12-11T08:17:57.837Z,100088.66
2022-12-11T08:20:26.515Z,100086.78
2022-12-11T08:22:58.825Z,100086.53
2022-12-11T08:25:30.945Z,100091.03
2022-12-11T08:35:26.039Z,100087.53
2022-12-11T08:40:28.043Z,100076.47
2022-12-11T08:53:28.641Z,100082.50
2022-12-11T08:55:57.964Z,100091.72
2022-12-11T09:03:44.082Z,100075.44
2022-12-11T09:06:14.558Z,100091.38
2022-12-11T09:08:51.677Z,100081.63
2022-12-11T09:14:16.530Z,100082.34
2022-12-11T09:20:43.626Z,100071.47
2022-12-11T09:40:53.278Z,100053.34
2022-12-11T09:48:02.802Z,100033.94
2022-12-11T09:51:06.888Z,100032.59
2022-12-11T09:53:35.360Z,100032.38
2022-12-11T09:56:14.085Z,100024.22
2022-12-11T10:21:18.358Z,99971.13
2022-12-11T10:23:46.501Z,99976.34
2022-12-11T10:26:23.459Z,99967.66
2022-12-11T10:28:55.574Z,99963.59
2022-12-11T10:31:22.854Z,99953.00
2022-12-11T10:34:20.485Z,99964.97
2022-12-11T10:37:00.429Z,99970.38
2022-12-11T10:39:02.924Z,99956.00
2022-12-11T10:41:14.181Z,99949.28
2022-12-11T10:46:24.937Z,99950.09
2022-12-11T10:48:32.392Z,99943.06
2022-12-11T10:54:45.601Z,99943.63
2022-12-11T10:57:07.129Z,99932.00
2022-12-11T10:59:24.139Z,99924.91
2022-12-11T11:01:30.828Z,99915.44
2022-12-11T11:06:39.729Z,99902.72
2022-12-11T11:30:08.413Z,99881.84
2022-12-11T11:38:04.422Z,99881.09
2022-12-11T11:53:16.847Z,99869.97
2022-12-11T11:55:47.482Z,99879.19
2022-12-11T11:58:13.946Z,99881.91
2022-12-11T12:00:21.783Z,99870.22
2022-12-11T12:02:24.271Z,99880.53
2022-12-11T12:04:33.144Z,99872.66
2022-12-11T12:07:32.083Z,99872.13
2022-12-11T12:10:22.967Z,99855.84
2022-12-11T12:13:47.729Z,99856.91
2022-12-11T12:15:55.542Z,99856.66
2022-12-11T12:18:02.813Z,99859.88
2022-12-11T12:20:37.757Z,99850.41
2022-12-11T12:23:15.093Z,99855.81
2022-12-11T12:25:37.360Z,99851.72
2022-12-11T12:32:21.229Z,99854.19
2022-12-11T12:34:53.776Z,99859.09
2022-12-11T12:37:43.896Z,99860.16
2022-12-11T12:40:32.527Z,99869.66
2022-12-11T12:42:48.648Z,99859.88
2022-12-11T12:45:15.084Z,99852.56
2022-12-11T12:47:18.014Z,99849.56
2022-12-11T12:49:29.423Z,99847.66
2022-12-11T12:51:31.819Z,99846.56
2022-12-11T12:53:35.157Z,99853.38
2022-12-11T12:55:37.573Z,99847.66
2022-12-11T12:57:51.473Z,99852.03
2022-12-11T12:59:56.754Z,99855.81
2022-12-11T13:02:03.163Z,99842.22
2022-12-11T13:04:08.663Z,99839.53
2022-12-11T13:06:15.720Z,99841.16
2022-12-11T13:08:25.000Z,99846.00
2022-12-11T13:10:38.391Z,99846.28
2022-12-11T13:12:45.795Z,99840.88
2022-12-11T13:14:55.784Z,99836.53
2022-12-11T13:17:46.706Z,99843.03
2022-12-11T13:19:50.453Z,99838.97
2022-12-11T13:30:07.782Z,99833.53
2022-12-11T13:32:19.266Z,99833.53
2022-12-11T13:34:23.352Z,99829.44
2022-12-11T13:36:35.487Z,99831.34
2022-12-11T13:38:39.102Z,99830.53
2022-12-11T13:40:43.032Z,99828.63
2022-12-11T13:42:48.842Z,99823.50
2022-12-11T13:44:51.389Z,99822.66
2022-12-11T13:46:54.679Z,99831.63
2022-12-11T13:49:05.012Z,99824.56
2022-12-11T13:54:37.759Z,99837.81
2022-12-11T14:41:43.883Z,99812.00
2022-12-11T18:00:02.079Z,99751.31
2022-12-11T18:10:12.180Z,99745.84
2022-12-11T18:47:56.561Z,99744.50
2022-12-11T20:00:08.786Z,99724.44
2022-12-11T20:18:06.631Z,99730.66
2022-12-11T20:20:39.147Z,99721.72
2022-12-11T20:22:41.451Z,99716.28
2022-12-11T20:24:43.616Z,99706.22
2022-12-11T20:26:47.359Z,99711.09
2022-12-11T20:28:51.281Z,99704.88
2022-12-11T20:30:53.332Z,99704.34
2022-12-11T20:32:55.478Z,99690.22
2022-12-11T20:34:58.023Z,99707.84
2022-12-11T20:37:00.526Z,99690.22
2022-12-11T20:39:02.942Z,99691.03
2022-12-11T20:41:06.302Z,99686.94
2022-12-11T20:43:08.731Z,99691.81
2022-12-11T20:45:11.404Z,99692.38
2022-12-11T20:47:14.581Z,99683.69
2022-12-11T20:49:17.000Z,99688.03
2022-12-11T20:51:25.717Z,99686.69
2022-12-11T20:53:28.686Z,99680.44
2022-12-11T20:55:31.031Z,99678.25
2022-12-11T20:57:39.328Z,99683.97
2022-12-11T20:59:45.318Z,99682.88
2022-12-11T21:01:47.695Z,99685.88
2022-12-11T21:03:50.304Z,99682.31
2022-12-11T21:05:52.787Z,99690.22
2022-12-11T21:07:55.371Z,99682.06
2022-12-11T21:09:57.746Z,99688.84
2022-12-11T21:12:01.008Z,99686.41
2022-12-11T21:14:03.373Z,99689.94
2022-12-11T21:16:07.259Z,99687.50
2022-12-11T21:18:09.591Z,99682.06
2022-12-11T21:20:12.270Z,99687.22
2022-12-11T21:22:14.747Z,99679.34
2022-12-11T21:24:23.797Z,99681.78
2022-12-11T21:26:26.146Z,99673.63
2022-12-11T21:28:35.006Z,99674.44
2022-12-11T21:30:44.329Z,99675.78
2022-12-11T21:32:47.302Z,99679.06
2022-12-11T21:34:51.513Z,99672.81
2022-12-11T21:36:56.921Z,99667.13
2022-12-11T21:38:59.950Z,99657.63
2022-12-11T21:41:17.716Z,99651.66
2022-12-11T21:43:20.326Z,99657.91
2022-12-11T21:46:00.543Z,99657.09
2022-12-11T21:47:45.221Z,99654.09
2022-12-11T21:49:47.817Z,99650.00
2022-12-11T21:51:50.519Z,99651.38
2022-12-11T21:53:53.649Z,99653.25
2022-12-11T21:55:56.129Z,99641.88
2022-12-11T21:57:58.878Z,99645.66
2022-12-11T22:00:01.446Z,99635.91
2022-12-11T22:02:04.301Z,99654.91
2022-12-11T22:04:07.401Z,99651.91
2022-12-11T22:06:10.287Z,99649.47
2022-12-11T22:08:12.671Z,99647.31
2022-12-11T22:10:23.909Z,99639.69
2022-12-11T22:12:28.239Z,99651.09
2022-12-11T22:14:33.958Z,99648.94
2022-12-11T22:16:36.192Z,99653.81
